VOMMVNKT

Guest
Details From VOMM - Chennai Intl
To VNKT - Kathmandu Tribhuvan Intl
Flight Number -
Tags Generated
Created
Modified
Stats Distance 929 nm / 1,720 km
Max Altitude 0 ft / 0 m
Waypoints 3
Social Downloads 1
Likes 0
Share VATSIM

Download

Looking for another format? Having issues loading an existing format? Contact us
Advertisement - Login to hide

Notes

Generated

Route

VOMM KTM VNKT

ID Type Via Altitude Latitude Longitude Leg Dist Tot Dist Heading (true) Name
O VOMM APT - 0 ft / 0 m 13.00194˚ 80.16584˚ - 0 nm - -
KTM VOR - 0 ft / 0 m 27.67472˚ 85.34917˚ 927 nm 927 nm 17° / 19° KATHMANDU VOR-DME
O VNKT APT - 0 ft / 0 m 27.68381˚ 85.35342˚ 0 nm 928 nm 22° / 22° -

Altitude Profile

Advertisement - Login to hide

Weather


0- 5 10 15 20 25 30 35+ Temperature / ° C

Clouds and Precipitation
Forecast for 2017-12-13 12:00 UTC. Updated 2 hours ago

Ground ~20,000 ft ~40,000 ft Winds

VOMM

Details ICAO VOMM (MAA)
Name CHENNAI INTL
Region India
Timezone Asia/Kolkata (UTC+5.5)
Stats Elevation 52 ft / 16 m (AMSL)
Location 12.993860° 80.171442°
Runways 2
Magnetic Variation 1.204° W

METAR

VOMM 131300Z 05004KT 6000 FEW018 27/23 Q1013 NOSIG

Decode

TAF

TAF VOMM 131100Z 1312/1418 07010KT 5000 HZ FEW020 BECMG 1318/1319 VRB02KT 3000 BR BECMG 1321/1322 1500 BR TEMPO 1400/1403 0800 FG SCT008 BECMG 1405/1406 34005KT 3000 BR BECMG 1409/1410 07010KT 6000

Decode

Departure Runways

ID Width Length Bearing (true) Bearing (mag) Surface Threshold Offset Overrun Length
07 148 ft / 45 m 12,003 ft / 3,659 m 68.87° 70.07° Asphalt 0 ft / 0 m 481 ft / 147 m
12 148 ft / 45 m 6,711 ft / 2,046 m 117.77° 118.97° Asphalt 0 ft / 0 m 0 ft / 0 m
25 148 ft / 45 m 12,003 ft / 3,659 m 248.88° 250.08° Asphalt 0 ft / 0 m 492 ft / 150 m
30 148 ft / 45 m 6,711 ft / 2,046 m 297.78° 298.98° Asphalt 1,130 ft / 344 m 0 ft / 0 m

VNKT

Details ICAO VNKT (KTM)
Name Kathmandu Tribhuvan Intl
Region Nepal
Timezone Asia/Kathmandu (UTC+5.8)
Stats Elevation 4,390 ft / 1,338 m (AMSL)
Location 27.696583° 85.359100°
Runways 1
Magnetic Variation 0.492° E

METAR

VNKT 131250Z 23003KT 190V270 7000 FEW020 15/07 Q1019 NOSIG

Decode

TAF

TAF VNKT 131100Z 1312/1412 28005KT 7000 FEW020 BECMG 1314/1315 VRB02KT 6000 FEW015 BECMG 1400/1402 00000KT 3000 BR FEW010 PROB40 1401/1403 2000 BR BECMG 1404/1405 13004KT 5000 BR/HZ FEW015 BECMG 1407/1409 28008KT 8000 FEW020

Decode

Destination Runways

ID Width Length Bearing (true) Bearing (mag) Surface Threshold Offset Overrun Length
02 148 ft / 45 m 10,017 ft / 3,053 m 21.50° 21.01° Asphalt 0 ft / 0 m 0 ft / 0 m
20 148 ft / 45 m 10,017 ft / 3,053 m 201.51° 201.02° Asphalt 400 ft / 122 m 0 ft / 0 m